sensor_id;sensor_type;location;lat;lon;timestamp;temperature;humidity
4097;DHT22;2062;50.694;7.246;2022-08-03T00:01:24;27.10;36.50
4097;DHT22;2062;50.694;7.246;2022-08-03T00:03:51;27.20;36.50
4097;DHT22;2062;50.694;7.246;2022-08-03T00:06:19;27.10;36.50
4097;DHT22;2062;50.694;7.246;2022-08-03T00:08:46;27.10;37.20
4097;DHT22;2062;50.694;7.246;2022-08-03T00:11:13;27.10;36.50
4097;DHT22;2062;50.694;7.246;2022-08-03T00:13:40;27.10;36.50
4097;DHT22;2062;50.694;7.246;2022-08-03T00:16:07;27.10;36.50
4097;DHT22;2062;50.694;7.246;2022-08-03T00:18:35;27.00;36.50
4097;DHT22;2062;50.694;7.246;2022-08-03T00:21:02;27.10;36.60
4097;DHT22;2062;50.694;7.246;2022-08-03T00:23:31;27.00;36.60
4097;DHT22;2062;50.694;7.246;2022-08-03T00:25:58;27.00;36.60
4097;DHT22;2062;50.694;7.246;2022-08-03T00:28:25;27.00;36.60
4097;DHT22;2062;50.694;7.246;2022-08-03T00:30:52;27.00;36.60
4097;DHT22;2062;50.694;7.246;2022-08-03T00:33:20;27.00;36.60
4097;DHT22;2062;50.694;7.246;2022-08-03T00:35:47;27.00;36.60
4097;DHT22;2062;50.694;7.246;2022-08-03T00:38:14;27.00;36.60
4097;DHT22;2062;50.694;7.246;2022-08-03T00:40:43;27.00;36.50
4097;DHT22;2062;50.694;7.246;2022-08-03T00:43:09;27.00;36.50
4097;DHT22;2062;50.694;7.246;2022-08-03T00:45:38;27.00;36.50
4097;DHT22;2062;50.694;7.246;2022-08-03T00:48:06;27.00;36.50
4097;DHT22;2062;50.694;7.246;2022-08-03T00:50:35;27.00;36.50
4097;DHT22;2062;50.694;7.246;2022-08-03T00:53:04;27.00;36.50
4097;DHT22;2062;50.694;7.246;2022-08-03T00:55:31;27.00;36.40
4097;DHT22;2062;50.694;7.246;2022-08-03T00:58:00;27.00;36.50
4097;DHT22;2062;50.694;7.246;2022-08-03T01:00:31;27.00;36.50
4097;DHT22;2062;50.694;7.246;2022-08-03T01:03:00;27.00;37.10
4097;DHT22;2062;50.694;7.246;2022-08-03T01:05:28;27.00;36.50
4097;DHT22;2062;50.694;7.246;2022-08-03T01:08:02;26.90;36.00
4097;DHT22;2062;50.694;7.246;2022-08-03T01:10:36;27.00;36.50
4097;DHT22;2062;50.694;7.246;2022-08-03T01:13:16;27.00;36.50
4097;DHT22;2062;50.694;7.246;2022-08-03T01:15:52;26.90;36.10
4097;DHT22;2062;50.694;7.246;2022-08-03T01:18:25;26.90;36.10
4097;DHT22;2062;50.694;7.246;2022-08-03T01:20:56;26.90;36.10
4097;DHT22;2062;50.694;7.246;2022-08-03T01:23:40;26.90;36.10
4097;DHT22;2062;50.694;7.246;2022-08-03T01:29:10;26.90;36.00
4097;DHT22;2062;50.694;7.246;2022-08-03T01:31:43;26.90;36.10
4097;DHT22;2062;50.694;7.246;2022-08-03T01:34:14;26.90;36.10
4097;DHT22;2062;50.694;7.246;2022-08-03T01:36:47;26.90;36.10
4097;DHT22;2062;50.694;7.246;2022-08-03T01:39:15;26.90;36.10
4097;DHT22;2062;50.694;7.246;2022-08-03T01:41:46;26.90;36.00
4097;DHT22;2062;50.694;7.246;2022-08-03T01:44:15;26.90;36.10
4097;DHT22;2062;50.694;7.246;2022-08-03T01:46:44;26.90;36.10
4097;DHT22;2062;50.694;7.246;2022-08-03T01:49:14;26.90;36.20
4097;DHT22;2062;50.694;7.246;2022-08-03T01:51:42;26.90;36.20
4097;DHT22;2062;50.694;7.246;2022-08-03T01:54:11;26.90;36.20
4097;DHT22;2062;50.694;7.246;2022-08-03T01:56:39;26.90;36.20
4097;DHT22;2062;50.694;7.246;2022-08-03T02:05:52;26.90;36.20
4097;DHT22;2062;50.694;7.246;2022-08-03T02:08:22;26.90;36.20
4097;DHT22;2062;50.694;7.246;2022-08-03T02:10:50;26.90;36.20
4097;DHT22;2062;50.694;7.246;2022-08-03T02:13:18;26.90;36.10
4097;DHT22;2062;50.694;7.246;2022-08-03T02:15:46;26.90;36.10
4097;DHT22;2062;50.694;7.246;2022-08-03T02:18:14;26.90;36.10
4097;DHT22;2062;50.694;7.246;2022-08-03T02:20:42;26.90;36.10
4097;DHT22;2062;50.694;7.246;2022-08-03T02:23:11;26.90;36.20
4097;DHT22;2062;50.694;7.246;2022-08-03T02:25:43;26.90;36.20
4097;DHT22;2062;50.694;7.246;2022-08-03T02:28:16;26.90;36.20
4097;DHT22;2062;50.694;7.246;2022-08-03T02:30:51;26.90;36.20
4097;DHT22;2062;50.694;7.246;2022-08-03T02:33:24;26.90;36.20
4097;DHT22;2062;50.694;7.246;2022-08-03T02:35:53;26.90;36.10
4097;DHT22;2062;50.694;7.246;2022-08-03T02:38:27;26.90;36.10
4097;DHT22;2062;50.694;7.246;2022-08-03T02:40:55;26.90;36.10
4097;DHT22;2062;50.694;7.246;2022-08-03T02:43:24;26.90;36.10
4097;DHT22;2062;50.694;7.246;2022-08-03T02:52:35;26.90;36.00
4097;DHT22;2062;50.694;7.246;2022-08-03T02:55:06;26.90;36.00
4097;DHT22;2062;50.694;7.246;2022-08-03T02:57:35;26.90;36.10
4097;DHT22;2062;50.694;7.246;2022-08-03T03:00:04;26.90;36.10
4097;DHT22;2062;50.694;7.246;2022-08-03T03:02:32;26.90;36.00
4097;DHT22;2062;50.694;7.246;2022-08-03T03:05:00;26.90;36.00
4097;DHT22;2062;50.694;7.246;2022-08-03T03:07:28;26.90;36.00
4097;DHT22;2062;50.694;7.246;2022-08-03T03:09:56;26.90;36.00
4097;DHT22;2062;50.694;7.246;2022-08-03T03:12:25;26.90;36.10
4097;DHT22;2062;50.694;7.246;2022-08-03T03:14:53;26.90;36.10
4097;DHT22;2062;50.694;7.246;2022-08-03T03:17:20;26.90;36.10
4097;DHT22;2062;50.694;7.246;2022-08-03T03:19:49;26.90;36.10
4097;DHT22;2062;50.694;7.246;2022-08-03T03:22:16;26.80;36.10
4097;DHT22;2062;50.694;7.246;2022-08-03T03:24:45;26.90;36.00
4097;DHT22;2062;50.694;7.246;2022-08-03T03:27:13;26.90;36.00
4097;DHT22;2062;50.694;7.246;2022-08-03T03:29:41;26.80;36.00
4097;DHT22;2062;50.694;7.246;2022-08-03T03:32:09;26.90;36.00
4097;DHT22;2062;50.694;7.246;2022-08-03T03:34:36;26.90;36.10
4097;DHT22;2062;50.694;7.246;2022-08-03T03:37:03;26.90;36.10
4097;DHT22;2062;50.694;7.246;2022-08-03T03:39:30;26.90;36.10
4097;DHT22;2062;50.694;7.246;2022-08-03T03:41:59;26.90;36.10
4097;DHT22;2062;50.694;7.246;2022-08-03T03:44:27;26.90;36.10
4097;DHT22;2062;50.694;7.246;2022-08-03T03:46:57;26.80;36.10
4097;DHT22;2062;50.694;7.246;2022-08-03T03:49:24;26.90;36.10
4097;DHT22;2062;50.694;7.246;2022-08-03T03:51:51;26.90;36.20
4097;DHT22;2062;50.694;7.246;2022-08-03T03:54:19;26.80;36.20
4097;DHT22;2062;50.694;7.246;2022-08-03T03:56:46;26.90;36.20
4097;DHT22;2062;50.694;7.246;2022-08-03T03:59:13;26.90;36.20
4097;DHT22;2062;50.694;7.246;2022-08-03T04:01:40;26.90;36.30
4097;DHT22;2062;50.694;7.246;2022-08-03T04:04:08;26.80;36.20
4097;DHT22;2062;50.694;7.246;2022-08-03T04:06:53;26.80;36.20
4097;DHT22;2062;50.694;7.246;2022-08-03T04:09:39;26.80;36.20
4097;DHT22;2062;50.694;7.246;2022-08-03T04:12:25;26.80;36.30
4097;DHT22;2062;50.694;7.246;2022-08-03T04:14:56;26.80;36.40
4097;DHT22;2062;50.694;7.246;2022-08-03T04:17:24;26.80;36.40
4097;DHT22;2062;50.694;7.246;2022-08-03T04:19:54;26.80;36.50
4097;DHT22;2062;50.694;7.246;2022-08-03T04:22:25;26.90;36.40
4097;DHT22;2062;50.694;7.246;2022-08-03T04:24:58;26.80;36.20
4097;DHT22;2062;50.694;7.246;2022-08-03T04:27:34;26.80;36.10
4097;DHT22;2062;50.694;7.246;2022-08-03T04:30:03;26.80;36.00
4097;DHT22;2062;50.694;7.246;2022-08-03T04:32:31;26.80;36.10
4097;DHT22;2062;50.694;7.246;2022-08-03T04:34:59;26.80;36.40
4097;DHT22;2062;50.694;7.246;2022-08-03T04:37:44;26.80;36.10
4097;DHT22;2062;50.694;7.246;2022-08-03T04:40:13;26.80;36.00
4097;DHT22;2062;50.694;7.246;2022-08-03T04:42:42;26.80;36.00
4097;DHT22;2062;50.694;7.246;2022-08-03T04:45:12;26.80;36.10
4097;DHT22;2062;50.694;7.246;2022-08-03T04:47:39;26.80;36.20
4097;DHT22;2062;50.694;7.246;2022-08-03T04:50:09;26.80;36.20
4097;DHT22;2062;50.694;7.246;2022-08-03T04:52:36;26.80;36.20
4097;DHT22;2062;50.694;7.246;2022-08-03T04:55:03;26.80;36.20
4097;DHT22;2062;50.694;7.246;2022-08-03T04:57:30;26.80;36.20
4097;DHT22;2062;50.694;7.246;2022-08-03T04:59:57;26.80;36.20
4097;DHT22;2062;50.694;7.246;2022-08-03T05:02:24;26.80;36.20
4097;DHT22;2062;50.694;7.246;2022-08-03T05:04:51;26.80;36.20
4097;DHT22;2062;50.694;7.246;2022-08-03T05:07:19;26.80;36.20
4097;DHT22;2062;50.694;7.246;2022-08-03T05:09:46;26.80;36.20
4097;DHT22;2062;50.694;7.246;2022-08-03T05:12:12;26.80;36.20
4097;DHT22;2062;50.694;7.246;2022-08-03T05:14:39;26.90;36.20
4097;DHT22;2062;50.694;7.246;2022-08-03T05:17:06;26.90;36.20
4097;DHT22;2062;50.694;7.246;2022-08-03T05:19:34;26.90;36.10
4097;DHT22;2062;50.694;7.246;2022-08-03T05:22:00;26.90;36.10
4097;DHT22;2062;50.694;7.246;2022-08-03T05:24:29;26.90;36.80
4097;DHT22;2062;50.694;7.246;2022-08-03T05:26:55;26.90;36.20
4097;DHT22;2062;50.694;7.246;2022-08-03T05:29:22;27.00;36.60
4097;DHT22;2062;50.694;7.246;2022-08-03T05:31:49;27.10;36.60
4097;DHT22;2062;50.694;7.246;2022-08-03T05:34:16;27.20;36.50
4097;DHT22;2062;50.694;7.246;2022-08-03T05:36:43;27.40;36.30
4097;DHT22;2062;50.694;7.246;2022-08-03T05:39:10;27.60;36.00
4097;DHT22;2062;50.694;7.246;2022-08-03T05:41:38;27.80;35.70
4097;DHT22;2062;50.694;7.246;2022-08-03T05:44:05;28.10;35.80
4097;DHT22;2062;50.694;7.246;2022-08-03T05:46:32;28.30;35.40
4097;DHT22;2062;50.694;7.246;2022-08-03T05:48:58;28.70;35.60
4097;DHT22;2062;50.694;7.246;2022-08-03T05:51:25;28.90;35.10
4097;DHT22;2062;50.694;7.246;2022-08-03T05:53:53;29.00;34.60
4097;DHT22;2062;50.694;7.246;2022-08-03T05:56:21;28.90;34.00
4097;DHT22;2062;50.694;7.246;2022-08-03T05:58:51;28.90;34.00
4097;DHT22;2062;50.694;7.246;2022-08-03T06:01:18;28.80;34.00
4097;DHT22;2062;50.694;7.246;2022-08-03T06:03:47;28.70;34.10
4097;DHT22;2062;50.694;7.246;2022-08-03T06:06:14;28.60;34.30
4097;DHT22;2062;50.694;7.246;2022-08-03T06:08:41;28.50;34.50
4097;DHT22;2062;50.694;7.246;2022-08-03T06:11:09;28.40;34.70
4097;DHT22;2062;50.694;7.246;2022-08-03T06:13:36;28.30;35.00
4097;DHT22;2062;50.694;7.246;2022-08-03T06:16:04;28.20;35.10
4097;DHT22;2062;50.694;7.246;2022-08-03T06:18:31;28.10;35.30
4097;DHT22;2062;50.694;7.246;2022-08-03T06:20:58;28.10;35.40
4097;DHT22;2062;50.694;7.246;2022-08-03T06:23:25;28.00;35.50
4097;DHT22;2062;50.694;7.246;2022-08-03T06:25:52;28.00;35.60
4097;DHT22;2062;50.694;7.246;2022-08-03T06:28:19;27.90;35.40
4097;DHT22;2062;50.694;7.246;2022-08-03T06:30:46;27.90;35.70
4097;DHT22;2062;50.694;7.246;2022-08-03T06:33:14;27.80;35.70
4097;DHT22;2062;50.694;7.246;2022-08-03T06:35:41;27.80;36.50
4097;DHT22;2062;50.694;7.246;2022-08-03T06:38:07;27.70;35.80
4097;DHT22;2062;50.694;7.246;2022-08-03T06:40:35;27.70;36.00
4097;DHT22;2062;50.694;7.246;2022-08-03T06:43:05;27.70;36.00
4097;DHT22;2062;50.694;7.246;2022-08-03T06:45:33;27.60;36.10
4097;DHT22;2062;50.694;7.246;2022-08-03T06:48:01;27.60;36.30
4097;DHT22;2062;50.694;7.246;2022-08-03T06:50:29;27.60;36.50
4097;DHT22;2062;50.694;7.246;2022-08-03T06:52:56;27.60;36.60
4097;DHT22;2062;50.694;7.246;2022-08-03T06:55:23;27.60;36.60
4097;DHT22;2062;50.694;7.246;2022-08-03T06:57:50;27.60;36.70
4097;DHT22;2062;50.694;7.246;2022-08-03T07:00:17;27.60;36.80
4097;DHT22;2062;50.694;7.246;2022-08-03T07:02:44;27.60;36.80
4097;DHT22;2062;50.694;7.246;2022-08-03T07:05:12;27.60;36.90
4097;DHT22;2062;50.694;7.246;2022-08-03T07:07:40;27.60;37.00
4097;DHT22;2062;50.694;7.246;2022-08-03T07:10:08;27.50;37.00
4097;DHT22;2062;50.694;7.246;2022-08-03T07:12:37;27.60;37.10
4097;DHT22;2062;50.694;7.246;2022-08-03T07:15:05;27.50;37.30
4097;DHT22;2062;50.694;7.246;2022-08-03T07:17:34;27.50;37.30
4097;DHT22;2062;50.694;7.246;2022-08-03T07:20:03;27.50;37.30
4097;DHT22;2062;50.694;7.246;2022-08-03T07:22:31;27.50;37.30
4097;DHT22;2062;50.694;7.246;2022-08-03T07:24:59;27.50;37.30
4097;DHT22;2062;50.694;7.246;2022-08-03T07:27:27;27.60;37.30
4097;DHT22;2062;50.694;7.246;2022-08-03T07:29:55;27.50;37.30
4097;DHT22;2062;50.694;7.246;2022-08-03T07:32:22;27.50;37.40
4097;DHT22;2062;50.694;7.246;2022-08-03T07:34:49;27.50;37.40
4097;DHT22;2062;50.694;7.246;2022-08-03T07:37:16;27.50;37.40
4097;DHT22;2062;50.694;7.246;2022-08-03T07:39:43;27.50;37.50
4097;DHT22;2062;50.694;7.246;2022-08-03T07:42:11;27.50;37.50
4097;DHT22;2062;50.694;7.246;2022-08-03T07:44:38;27.50;37.60
4097;DHT22;2062;50.694;7.246;2022-08-03T07:47:05;27.50;37.70
4097;DHT22;2062;50.694;7.246;2022-08-03T07:49:32;27.50;37.60
4097;DHT22;2062;50.694;7.246;2022-08-03T07:51:59;27.50;38.30
4097;DHT22;2062;50.694;7.246;2022-08-03T07:54:43;27.50;37.60
4097;DHT22;2062;50.694;7.246;2022-08-03T07:57:11;27.50;37.50
4097;DHT22;2062;50.694;7.246;2022-08-03T07:59:38;27.50;37.60
4097;DHT22;2062;50.694;7.246;2022-08-03T08:02:05;27.50;37.60
4097;DHT22;2062;50.694;7.246;2022-08-03T08:04:32;27.50;37.60
4097;DHT22;2062;50.694;7.246;2022-08-03T08:06:59;27.50;37.60
4097;DHT22;2062;50.694;7.246;2022-08-03T08:09:26;27.50;37.60
4097;DHT22;2062;50.694;7.246;2022-08-03T08:11:53;27.50;37.60
4097;DHT22;2062;50.694;7.246;2022-08-03T08:14:21;27.50;37.60
4097;DHT22;2062;50.694;7.246;2022-08-03T08:16:48;27.50;37.60
4097;DHT22;2062;50.694;7.246;2022-08-03T08:19:15;27.50;37.60
4097;DHT22;2062;50.694;7.246;2022-08-03T08:21:42;27.50;37.50
4097;DHT22;2062;50.694;7.246;2022-08-03T08:24:09;27.50;37.50
4097;DHT22;2062;50.694;7.246;2022-08-03T08:26:36;27.50;37.50
4097;DHT22;2062;50.694;7.246;2022-08-03T08:29:03;27.50;37.60
4097;DHT22;2062;50.694;7.246;2022-08-03T08:31:32;27.50;37.60
4097;DHT22;2062;50.694;7.246;2022-08-03T08:33:59;27.50;37.50
4097;DHT22;2062;50.694;7.246;2022-08-03T08:36:30;27.50;37.50
4097;DHT22;2062;50.694;7.246;2022-08-03T08:38:57;27.50;37.60
4097;DHT22;2062;50.694;7.246;2022-08-03T08:41:24;27.50;37.50
4097;DHT22;2062;50.694;7.246;2022-08-03T08:43:50;27.50;38.20
4097;DHT22;2062;50.694;7.246;2022-08-03T08:46:19;27.50;37.60
4097;DHT22;2062;50.694;7.246;2022-08-03T08:48:47;27.50;37.50
4097;DHT22;2062;50.694;7.246;2022-08-03T08:51:15;27.50;37.60
4097;DHT22;2062;50.694;7.246;2022-08-03T08:53:48;27.50;37.60
4097;DHT22;2062;50.694;7.246;2022-08-03T08:56:16;27.50;37.50
4097;DHT22;2062;50.694;7.246;2022-08-03T08:58:46;27.40;37.60
4097;DHT22;2062;50.694;7.246;2022-08-03T09:01:13;27.50;37.60
4097;DHT22;2062;50.694;7.246;2022-08-03T09:03:43;27.40;37.60
4097;DHT22;2062;50.694;7.246;2022-08-03T09:06:11;27.50;37.60
4097;DHT22;2062;50.694;7.246;2022-08-03T09:08:39;27.40;37.60
4097;DHT22;2062;50.694;7.246;2022-08-03T09:11:06;27.40;37.60
4097;DHT22;2062;50.694;7.246;2022-08-03T09:13:33;27.40;37.50
4097;DHT22;2062;50.694;7.246;2022-08-03T09:16:14;27.50;37.50
4097;DHT22;2062;50.694;7.246;2022-08-03T09:18:42;27.40;37.60
4097;DHT22;2062;50.694;7.246;2022-08-03T09:21:15;27.50;37.60
4097;DHT22;2062;50.694;7.246;2022-08-03T09:23:46;27.50;38.20
4097;DHT22;2062;50.694;7.246;2022-08-03T09:26:19;27.40;37.60
4097;DHT22;2062;50.694;7.246;2022-08-03T09:28:53;27.50;37.60
4097;DHT22;2062;50.694;7.246;2022-08-03T09:31:29;27.50;37.50
4097;DHT22;2062;50.694;7.246;2022-08-03T09:33:56;27.50;37.60
4097;DHT22;2062;50.694;7.246;2022-08-03T09:36:37;27.40;37.60
4097;DHT22;2062;50.694;7.246;2022-08-03T09:39:06;27.40;37.50
4097;DHT22;2062;50.694;7.246;2022-08-03T09:41:36;27.40;37.60
4097;DHT22;2062;50.694;7.246;2022-08-03T09:50:47;27.40;37.60
4097;DHT22;2062;50.694;7.246;2022-08-03T09:53:16;27.40;37.60
4097;DHT22;2062;50.694;7.246;2022-08-03T09:55:50;27.40;37.50
4097;DHT22;2062;50.694;7.246;2022-08-03T09:58:19;27.40;37.50
4097;DHT22;2062;50.694;7.246;2022-08-03T10:00:57;27.40;37.60
4097;DHT22;2062;50.694;7.246;2022-08-03T10:03:26;27.50;37.60
4097;DHT22;2062;50.694;7.246;2022-08-03T10:05:54;27.50;37.50
4097;DHT22;2062;50.694;7.246;2022-08-03T10:08:22;27.40;37.60
4097;DHT22;2062;50.694;7.246;2022-08-03T10:10:51;27.50;37.50
4097;DHT22;2062;50.694;7.246;2022-08-03T10:13:20;27.50;37.50
4097;DHT22;2062;50.694;7.246;2022-08-03T10:15:47;27.50;38.20
4097;DHT22;2062;50.694;7.246;2022-08-03T10:18:14;27.50;37.50
4097;DHT22;2062;50.694;7.246;2022-08-03T10:20:45;27.50;37.60
4097;DHT22;2062;50.694;7.246;2022-08-03T10:23:13;27.50;37.50
4097;DHT22;2062;50.694;7.246;2022-08-03T10:25:42;27.50;37.50
4097;DHT22;2062;50.694;7.246;2022-08-03T10:28:13;27.50;38.10
4097;DHT22;2062;50.694;7.246;2022-08-03T10:30:43;27.50;37.50
4097;DHT22;2062;50.694;7.246;2022-08-03T10:33:16;27.50;37.50
4097;DHT22;2062;50.694;7.246;2022-08-03T10:35:46;27.50;37.50
4097;DHT22;2062;50.694;7.246;2022-08-03T10:38:18;27.50;37.50
4097;DHT22;2062;50.694;7.246;2022-08-03T10:40:48;27.50;37.50
4097;DHT22;2062;50.694;7.246;2022-08-03T10:43:18;27.50;37.40
4097;DHT22;2062;50.694;7.246;2022-08-03T10:45:46;27.50;37.40
4097;DHT22;2062;50.694;7.246;2022-08-03T10:48:13;27.50;37.50
4097;DHT22;2062;50.694;7.246;2022-08-03T10:50:40;27.50;37.50
4097;DHT22;2062;50.694;7.246;2022-08-03T10:53:08;27.50;37.60
4097;DHT22;2062;50.694;7.246;2022-08-03T10:55:36;27.50;37.50
4097;DHT22;2062;50.694;7.246;2022-08-03T10:58:47;27.50;37.50
4097;DHT22;2062;50.694;7.246;2022-08-03T11:01:16;27.50;37.60
4097;DHT22;2062;50.694;7.246;2022-08-03T11:04:14;27.50;37.70
4097;DHT22;2062;50.694;7.246;2022-08-03T11:06:41;27.60;37.70
4097;DHT22;2062;50.694;7.246;2022-08-03T11:09:16;27.50;37.60
4097;DHT22;2062;50.694;7.246;2022-08-03T11:11:45;27.60;37.60
4097;DHT22;2062;50.694;7.246;2022-08-03T11:14:16;27.60;37.90
4097;DHT22;2062;50.694;7.246;2022-08-03T11:16:44;27.60;37.60
4097;DHT22;2062;50.694;7.246;2022-08-03T11:19:14;27.60;37.50
4097;DHT22;2062;50.694;7.246;2022-08-03T11:21:56;27.60;37.60
4097;DHT22;2062;50.694;7.246;2022-08-03T11:27:37;27.60;37.60
4097;DHT22;2062;50.694;7.246;2022-08-03T11:30:07;27.60;37.60
4097;DHT22;2062;50.694;7.246;2022-08-03T11:32:56;27.60;37.50
4097;DHT22;2062;50.694;7.246;2022-08-03T11:35:26;27.60;37.50
4097;DHT22;2062;50.694;7.246;2022-08-03T11:38:05;27.60;37.40
4097;DHT22;2062;50.694;7.246;2022-08-03T11:40:35;27.60;37.60
4097;DHT22;2062;50.694;7.246;2022-08-03T11:43:03;27.60;37.60
4097;DHT22;2062;50.694;7.246;2022-08-03T11:45:32;27.60;37.50
4097;DHT22;2062;50.694;7.246;2022-08-03T11:48:10;27.60;37.60
4097;DHT22;2062;50.694;7.246;2022-08-03T11:50:38;27.70;37.60
4097;DHT22;2062;50.694;7.246;2022-08-03T11:53:06;27.70;37.60
4097;DHT22;2062;50.694;7.246;2022-08-03T11:55:34;27.70;37.50
4097;DHT22;2062;50.694;7.246;2022-08-03T11:58:04;27.70;37.60
4097;DHT22;2062;50.694;7.246;2022-08-03T12:00:32;27.70;37.50
4097;DHT22;2062;50.694;7.246;2022-08-03T12:03:02;27.70;37.50
4097;DHT22;2062;50.694;7.246;2022-08-03T12:05:46;27.70;37.40
4097;DHT22;2062;50.694;7.246;2022-08-03T12:08:15;27.70;37.50
4097;DHT22;2062;50.694;7.246;2022-08-03T12:10:47;27.70;37.40
4097;DHT22;2062;50.694;7.246;2022-08-03T12:13:15;27.70;37.30
4097;DHT22;2062;50.694;7.246;2022-08-03T12:15:50;27.70;37.40
4097;DHT22;2062;50.694;7.246;2022-08-03T12:18:18;27.70;37.30
4097;DHT22;2062;50.694;7.246;2022-08-03T12:20:48;27.70;37.30
4097;DHT22;2062;50.694;7.246;2022-08-03T12:23:16;27.70;37.40
4097;DHT22;2062;50.694;7.246;2022-08-03T12:25:45;27.70;37.60
4097;DHT22;2062;50.694;7.246;2022-08-03T12:28:15;27.70;38.40
4097;DHT22;2062;50.694;7.246;2022-08-03T12:30:47;27.80;37.70
4097;DHT22;2062;50.694;7.246;2022-08-03T12:33:19;27.70;37.60
4097;DHT22;2062;50.694;7.246;2022-08-03T12:35:48;27.80;37.50
4097;DHT22;2062;50.694;7.246;2022-08-03T12:38:20;27.80;37.50
4097;DHT22;2062;50.694;7.246;2022-08-03T12:41:00;27.80;37.50
4097;DHT22;2062;50.694;7.246;2022-08-03T12:43:28;27.80;37.50
4097;DHT22;2062;50.694;7.246;2022-08-03T12:46:10;27.80;37.50
4097;DHT22;2062;50.694;7.246;2022-08-03T12:48:59;27.80;37.50
4097;DHT22;2062;50.694;7.246;2022-08-03T12:51:26;27.80;37.40
4097;DHT22;2062;50.694;7.246;2022-08-03T12:53:54;27.80;37.40
4097;DHT22;2062;50.694;7.246;2022-08-03T12:56:22;27.80;37.40
4097;DHT22;2062;50.694;7.246;2022-08-03T12:58:49;27.80;37.40
4097;DHT22;2062;50.694;7.246;2022-08-03T13:01:18;27.80;37.40
4097;DHT22;2062;50.694;7.246;2022-08-03T13:03:48;27.80;37.30
4097;DHT22;2062;50.694;7.246;2022-08-03T13:06:16;27.80;37.40
4097;DHT22;2062;50.694;7.246;2022-08-03T13:08:44;27.80;37.40
4097;DHT22;2062;50.694;7.246;2022-08-03T13:11:20;27.80;37.40
4097;DHT22;2062;50.694;7.246;2022-08-03T13:13:48;27.70;37.30
4097;DHT22;2062;50.694;7.246;2022-08-03T13:16:16;27.80;37.40
4097;DHT22;2062;50.694;7.246;2022-08-03T13:18:43;27.80;37.30
4097;DHT22;2062;50.694;7.246;2022-08-03T13:21:12;27.80;37.30
4097;DHT22;2062;50.694;7.246;2022-08-03T13:23:40;27.80;37.40
4097;DHT22;2062;50.694;7.246;2022-08-03T13:26:08;27.80;37.50
4097;DHT22;2062;50.694;7.246;2022-08-03T13:28:36;27.80;38.20
4097;DHT22;2062;50.694;7.246;2022-08-03T13:31:05;27.80;37.50
4097;DHT22;2062;50.694;7.246;2022-08-03T13:33:34;27.80;37.70
4097;DHT22;2062;50.694;7.246;2022-08-03T13:36:01;27.80;37.90
4097;DHT22;2062;50.694;7.246;2022-08-03T13:38:28;27.80;37.80
4097;DHT22;2062;50.694;7.246;2022-08-03T13:40:56;27.80;37.80
4097;DHT22;2062;50.694;7.246;2022-08-03T13:43:23;27.90;37.80
4097;DHT22;2062;50.694;7.246;2022-08-03T13:45:50;27.90;37.70
4097;DHT22;2062;50.694;7.246;2022-08-03T13:48:17;27.80;37.60
4097;DHT22;2062;50.694;7.246;2022-08-03T13:50:45;27.80;38.10
4097;DHT22;2062;50.694;7.246;2022-08-03T13:53:12;27.90;38.00
4097;DHT22;2062;50.694;7.246;2022-08-03T14:05:46;27.90;37.50
4097;DHT22;2062;50.694;7.246;2022-08-03T14:08:13;27.80;37.40
4097;DHT22;2062;50.694;7.246;2022-08-03T14:10:42;27.90;37.40
4097;DHT22;2062;50.694;7.246;2022-08-03T14:13:10;27.90;38.10
4097;DHT22;2062;50.694;7.246;2022-08-03T14:15:37;27.90;37.40
4097;DHT22;2062;50.694;7.246;2022-08-03T14:18:05;27.90;37.40
4097;DHT22;2062;50.694;7.246;2022-08-03T14:20:33;27.80;37.40
4097;DHT22;2062;50.694;7.246;2022-08-03T14:23:01;27.90;37.40
4097;DHT22;2062;50.694;7.246;2022-08-03T14:25:28;27.90;37.60
4097;DHT22;2062;50.694;7.246;2022-08-03T14:27:55;27.90;37.70
4097;DHT22;2062;50.694;7.246;2022-08-03T14:30:22;27.90;37.80
4097;DHT22;2062;50.694;7.246;2022-08-03T14:32:50;28.00;38.20
4097;DHT22;2062;50.694;7.246;2022-08-03T14:35:16;27.90;37.80
4097;DHT22;2062;50.694;7.246;2022-08-03T14:37:43;27.90;37.70
4097;DHT22;2062;50.694;7.246;2022-08-03T14:40:12;27.90;37.60
4097;DHT22;2062;50.694;7.246;2022-08-03T14:42:39;27.90;37.60
4097;DHT22;2062;50.694;7.246;2022-08-03T14:45:07;27.90;37.60
4097;DHT22;2062;50.694;7.246;2022-08-03T14:47:34;28.00;38.10
4097;DHT22;2062;50.694;7.246;2022-08-03T14:50:00;28.00;38.20
4097;DHT22;2062;50.694;7.246;2022-08-03T14:52:29;27.90;37.70
4097;DHT22;2062;50.694;7.246;2022-08-03T14:54:56;28.00;38.00
4097;DHT22;2062;50.694;7.246;2022-08-03T14:57:25;28.00;38.10
4097;DHT22;2062;50.694;7.246;2022-08-03T14:59:52;28.00;38.20
4097;DHT22;2062;50.694;7.246;2022-08-03T15:02:19;28.00;39.10
4097;DHT22;2062;50.694;7.246;2022-08-03T15:04:46;28.00;38.60
4097;DHT22;2062;50.694;7.246;2022-08-03T15:07:13;28.00;38.50
4097;DHT22;2062;50.694;7.246;2022-08-03T15:09:40;28.10;38.60
4097;DHT22;2062;50.694;7.246;2022-08-03T15:12:07;28.00;39.10
4097;DHT22;2062;50.694;7.246;2022-08-03T15:14:35;28.10;38.60
4097;DHT22;2062;50.694;7.246;2022-08-03T15:17:03;28.00;38.60
4097;DHT22;2062;50.694;7.246;2022-08-03T15:19:30;28.10;38.70
4097;DHT22;2062;50.694;7.246;2022-08-03T15:21:57;28.10;38.60
4097;DHT22;2062;50.694;7.246;2022-08-03T15:24:24;28.00;38.50
4097;DHT22;2062;50.694;7.246;2022-08-03T15:26:51;28.10;38.50
4097;DHT22;2062;50.694;7.246;2022-08-03T15:36:03;28.10;38.50
4097;DHT22;2062;50.694;7.246;2022-08-03T15:38:30;28.10;38.60
4097;DHT22;2062;50.694;7.246;2022-08-03T15:40:58;28.10;38.60
4097;DHT22;2062;50.694;7.246;2022-08-03T15:43:25;28.10;38.70
4097;DHT22;2062;50.694;7.246;2022-08-03T15:45:52;28.10;38.70
4097;DHT22;2062;50.694;7.246;2022-08-03T15:48:19;28.10;38.60
4097;DHT22;2062;50.694;7.246;2022-08-03T15:50:47;28.10;38.70
4097;DHT22;2062;50.694;7.246;2022-08-03T15:53:16;28.20;38.70
4097;DHT22;2062;50.694;7.246;2022-08-03T15:55:43;28.20;38.60
4097;DHT22;2062;50.694;7.246;2022-08-03T15:58:10;28.20;38.60
4097;DHT22;2062;50.694;7.246;2022-08-03T16:00:37;28.20;38.60
4097;DHT22;2062;50.694;7.246;2022-08-03T16:03:04;28.20;38.50
4097;DHT22;2062;50.694;7.246;2022-08-03T16:05:32;28.20;38.50
4097;DHT22;2062;50.694;7.246;2022-08-03T16:07:58;28.20;38.50
4097;DHT22;2062;50.694;7.246;2022-08-03T16:10:27;28.20;38.40
4097;DHT22;2062;50.694;7.246;2022-08-03T16:12:55;28.20;38.30
4097;DHT22;2062;50.694;7.246;2022-08-03T16:15:23;28.20;38.30
4097;DHT22;2062;50.694;7.246;2022-08-03T16:17:50;28.20;38.20
4097;DHT22;2062;50.694;7.246;2022-08-03T16:20:17;28.20;38.20
4097;DHT22;2062;50.694;7.246;2022-08-03T16:22:46;28.20;38.30
4097;DHT22;2062;50.694;7.246;2022-08-03T16:25:14;28.20;38.20
4097;DHT22;2062;50.694;7.246;2022-08-03T16:27:43;28.20;38.30
4097;DHT22;2062;50.694;7.246;2022-08-03T16:30:11;28.20;38.30
4097;DHT22;2062;50.694;7.246;2022-08-03T16:32:41;28.30;38.20
4097;DHT22;2062;50.694;7.246;2022-08-03T16:35:08;28.30;38.20
4097;DHT22;2062;50.694;7.246;2022-08-03T16:37:35;28.30;38.20
4097;DHT22;2062;50.694;7.246;2022-08-03T16:40:04;28.30;38.20
4097;DHT22;2062;50.694;7.246;2022-08-03T16:42:33;28.30;38.30
4097;DHT22;2062;50.694;7.246;2022-08-03T16:45:02;28.30;39.00
4097;DHT22;2062;50.694;7.246;2022-08-03T16:47:29;28.30;38.40
4097;DHT22;2062;50.694;7.246;2022-08-03T16:49:56;28.30;38.30
4097;DHT22;2062;50.694;7.246;2022-08-03T16:52:23;28.30;38.50
4097;DHT22;2062;50.694;7.246;2022-08-03T16:54:51;28.30;38.70
4097;DHT22;2062;50.694;7.246;2022-08-03T16:57:18;28.30;38.50